X  Cerrar Datos meteorológicos de aviación METAR        LGTS Thessaloniki Macedonia International
Temperatura
68°F Temperatura
55°F Punto de rocío
64% Humedad



Viento
2 MPH
4 KM/H
1 M/S
2 NUDO



-1°
VRB
Condiciones actuales

Mostly Sunny Mayormente soleado
Presión 1020 (hPa) - 30.12 (inHg)
Visibilidad 6 (milla) - 10 (km)
Aeropuerto
Código de aeropuerto LGTS

localidad: Thessaloniki Macedonia International
Distancia: 85 (mi)

Metar:
METAR LGTS 150620Z VRB02KT CAVOK 20/13 Q1020 NOSIG

Hora: 15-04-2024 09:20 EEST